Terminal Aerodrome Forecast
Issued by NWS

Home | Current Version | Previous Version | Text Only | Print | Product List | Glossary On
Versions: 1 2 3 4 5 6 7 8 9 10 11 12 13 14 15 16 17 18 19
000
FTAK31 PAJN 272320
TAFASI
TAF
PASI 272320Z 2800/2824 19013KT 5SM -RA BR FEW010 OVC030
      WS020/19025KT
     FM280600 18008KT 6SM -RA BR OVC015
     FM281200 20008KT P6SM -SHRA OVC025=

USA.gov is the U.S. government's official web portal to all federal, state and local government web resources and services.